createdAt,value
2019-01-08T00:00:09.762Z,0.00
2019-01-08T00:01:09.672Z,0.00
2019-01-08T00:02:09.585Z,0.00
2019-01-08T00:03:09.498Z,0.00
2019-01-08T00:04:09.418Z,0.00
2019-01-08T00:05:09.323Z,0.00
2019-01-08T00:06:09.236Z,0.00
2019-01-08T00:07:09.149Z,0.00
2019-01-08T00:08:09.073Z,0.00
2019-01-08T00:09:08.972Z,0.00
2019-01-08T00:10:08.888Z,0.00
2019-01-08T00:11:08.800Z,0.00
2019-01-08T00:12:08.711Z,0.00
2019-01-08T00:13:08.629Z,0.00
2019-01-08T00:14:08.534Z,0.00
2019-01-08T00:15:08.459Z,0.00
2019-01-08T00:16:08.360Z,0.00
2019-01-08T00:17:08.274Z,0.00
2019-01-08T00:18:08.187Z,0.00
2019-01-08T00:19:08.098Z,0.00
2019-01-08T00:20:08.088Z,0.00
2019-01-08T00:21:07.921Z,0.00
2019-01-08T00:22:07.836Z,0.00
2019-01-08T00:23:07.751Z,0.00
2019-01-08T00:24:07.659Z,0.00
2019-01-08T00:25:07.580Z,0.00
2019-01-08T00:26:07.486Z,0.00
2019-01-08T00:27:07.400Z,0.00
2019-01-08T00:28:07.311Z,0.00
2019-01-08T00:29:07.223Z,0.00
2019-01-08T00:30:07.136Z,0.00
2019-01-08T00:31:07.053Z,0.00
2019-01-08T00:32:06.959Z,0.00
2019-01-08T00:33:06.871Z,0.00
2019-01-08T00:34:06.781Z,0.00
2019-01-08T00:35:06.694Z,0.00
2019-01-08T00:36:06.606Z,0.00
2019-01-08T00:37:06.521Z,0.00
2019-01-08T00:38:06.431Z,0.00
2019-01-08T00:39:06.344Z,0.00
2019-01-08T00:40:06.259Z,0.00
2019-01-08T00:41:06.168Z,0.00
2019-01-08T00:42:06.080Z,0.00
2019-01-08T00:43:05.993Z,0.00
2019-01-08T00:44:05.909Z,0.00
2019-01-08T00:45:05.890Z,0.00
2019-01-08T00:46:05.732Z,0.00
2019-01-08T00:47:05.641Z,0.00
2019-01-08T00:48:05.555Z,0.00
2019-01-08T00:49:05.470Z,0.00
2019-01-08T00:50:05.378Z,0.00
2019-01-08T00:51:05.292Z,0.00
2019-01-08T00:52:05.212Z,0.00
2019-01-08T00:53:05.118Z,0.00
2019-01-08T00:54:05.027Z,0.00
2019-01-08T00:55:04.940Z,0.00
2019-01-08T00:56:04.853Z,0.00
2019-01-08T00:57:04.765Z,0.00
2019-01-08T00:58:04.680Z,0.00
2019-01-08T00:59:04.588Z,0.00
2019-01-08T01:00:04.504Z,0.00
2019-01-08T01:01:04.412Z,0.00
2019-01-08T01:02:04.326Z,0.00
2019-01-08T01:03:04.281Z,0.00
2019-01-08T01:04:04.150Z,0.00
2019-01-08T01:05:04.065Z,0.00
2019-01-08T01:06:03.974Z,0.00
2019-01-08T01:07:03.888Z,0.00
2019-01-08T01:08:03.800Z,0.00
2019-01-08T01:09:03.710Z,0.00
2019-01-08T01:10:03.623Z,0.00
2019-01-08T01:11:03.539Z,0.00
2019-01-08T01:12:03.450Z,0.00
2019-01-08T01:13:03.360Z,0.00
2019-01-08T01:14:03.273Z,0.00
2019-01-08T01:15:03.185Z,0.00
2019-01-08T01:16:03.109Z,0.00
2019-01-08T01:17:03.010Z,0.00
2019-01-08T01:18:02.929Z,0.00
2019-01-08T01:19:02.832Z,0.00
2019-01-08T01:20:02.745Z,0.00
2019-01-08T01:21:02.657Z,0.00
2019-01-08T01:22:02.568Z,0.00
2019-01-08T01:23:02.482Z,0.00
2019-01-08T01:24:02.393Z,0.00
2019-01-08T01:25:02.303Z,0.00
2019-01-08T01:26:02.216Z,0.00
2019-01-08T01:27:02.129Z,0.00
2019-01-08T01:28:02.042Z,0.00
2019-01-08T01:29:01.952Z,0.00
2019-01-08T01:30:01.864Z,0.00
2019-01-08T01:31:01.776Z,0.00
2019-01-08T01:32:01.692Z,0.00
2019-01-08T01:33:01.600Z,0.00
2019-01-08T01:34:01.513Z,0.00
2019-01-08T01:35:01.426Z,0.00
2019-01-08T01:36:01.343Z,0.00
2019-01-08T01:37:01.246Z,0.00
2019-01-08T01:38:01.158Z,0.00
2019-01-08T01:39:01.071Z,0.00
2019-01-08T01:40:00.983Z,0.00
2019-01-08T01:41:00.896Z,0.00
2019-01-08T01:42:00.806Z,0.00
2019-01-08T01:43:00.718Z,0.00
2019-01-08T01:44:00.633Z,0.00
2019-01-08T01:45:00.541Z,0.00
2019-01-08T01:46:00.455Z,0.00
2019-01-08T01:47:00.365Z,0.00
2019-01-08T01:48:00.278Z,0.00
2019-01-08T01:49:00.196Z,0.00
2019-01-08T01:50:00.171Z,0.00
2019-01-08T01:51:00.014Z,0.00
2019-01-08T01:51:59.927Z,0.00
2019-01-08T01:52:59.918Z,0.00
2019-01-08T01:53:59.755Z,0.00
2019-01-08T01:54:59.663Z,0.00
2019-01-08T01:55:59.576Z,0.00
2019-01-08T01:56:59.484Z,0.00
2019-01-08T01:57:59.399Z,0.00
2019-01-08T01:58:59.307Z,0.00
2019-01-08T01:59:59.228Z,0.00
2019-01-08T02:00:59.137Z,0.00
2019-01-08T02:01:59.044Z,0.00
2019-01-08T02:02:58.958Z,0.00
2019-01-08T02:03:58.871Z,0.00
2019-01-08T02:04:58.780Z,0.00
2019-01-08T02:05:58.691Z,0.00
2019-01-08T02:06:58.603Z,0.00
2019-01-08T02:07:58.521Z,0.00
2019-01-08T02:08:58.426Z,0.00
2019-01-08T02:09:58.338Z,0.00
2019-01-08T02:10:58.251Z,0.00
2019-01-08T02:11:58.176Z,0.00
2019-01-08T02:12:58.075Z,0.00
2019-01-08T02:13:57.987Z,0.00
2019-01-08T02:14:57.898Z,0.00
2019-01-08T02:15:57.810Z,0.00
2019-01-08T02:16:57.720Z,0.00
2019-01-08T02:17:57.633Z,0.00
2019-01-08T02:18:57.550Z,0.00
2019-01-08T02:19:57.457Z,0.00
2019-01-08T02:20:57.368Z,0.00
2019-01-08T02:21:57.283Z,0.00
2019-01-08T02:22:57.194Z,0.00
2019-01-08T02:23:57.109Z,0.00
2019-01-08T02:24:57.021Z,0.00
2019-01-08T02:25:56.928Z,0.00
2019-01-08T02:26:56.840Z,0.00
2019-01-08T02:27:56.756Z,0.00
2019-01-08T02:28:56.664Z,0.00
2019-01-08T02:29:56.575Z,0.00
2019-01-08T02:30:56.503Z,0.00
2019-01-08T02:31:56.424Z,0.00
2019-01-08T02:32:56.312Z,0.00
2019-01-08T02:33:56.225Z,0.00
2019-01-08T02:34:56.138Z,0.00
2019-01-08T02:35:56.051Z,0.00
2019-01-08T02:36:55.959Z,0.00
2019-01-08T02:37:55.869Z,0.00
2019-01-08T02:38:55.781Z,0.00
2019-01-08T02:39:55.696Z,0.00
2019-01-08T02:40:55.604Z,0.00
2019-01-08T02:41:55.552Z,0.00
2019-01-08T02:42:55.427Z,0.00
2019-01-08T02:43:55.376Z,0.00
2019-01-08T02:44:55.251Z,0.00
2019-01-08T02:45:55.179Z,0.00
2019-01-08T02:46:55.077Z,0.00
2019-01-08T02:47:54.987Z,0.00
2019-01-08T02:48:54.904Z,0.00
2019-01-08T02:49:54.812Z,0.00
2019-01-08T02:50:54.721Z,0.00
2019-01-08T02:51:54.642Z,0.00
2019-01-08T02:52:54.546Z,0.00
2019-01-08T02:53:54.464Z,0.00
2019-01-08T02:54:54.372Z,0.00
2019-01-08T02:55:54.283Z,0.00
2019-01-08T02:56:54.190Z,0.00
2019-01-08T02:57:54.104Z,0.00
2019-01-08T02:58:54.023Z,0.00
2019-01-08T02:59:53.985Z,0.00
2019-01-08T03:00:53.839Z,0.00
2019-01-08T03:01:53.751Z,0.00
2019-01-08T03:02:53.662Z,0.00
2019-01-08T03:03:53.572Z,0.00
2019-01-08T03:04:53.485Z,0.00
2019-01-08T03:05:53.394Z,0.00
2019-01-08T03:06:53.308Z,0.00
2019-01-08T03:07:53.222Z,0.00
2019-01-08T03:08:53.133Z,0.00
2019-01-08T03:09:53.042Z,0.00
2019-01-08T03:10:52.953Z,0.00
2019-01-08T03:11:52.868Z,0.00
2019-01-08T03:12:52.779Z,0.00
2019-01-08T03:13:52.690Z,0.00
2019-01-08T03:14:52.601Z,0.00
2019-01-08T03:15:52.513Z,0.00
2019-01-08T03:16:52.426Z,0.00
2019-01-08T03:17:52.340Z,0.00
2019-01-08T03:18:52.248Z,0.00
2019-01-08T03:19:52.161Z,0.00
2019-01-08T03:20:52.072Z,0.00
2019-01-08T03:21:51.984Z,0.00
2019-01-08T03:22:51.899Z,0.00
2019-01-08T03:23:51.812Z,0.00
2019-01-08T03:24:51.792Z,0.00
2019-01-08T03:25:51.630Z,0.00
2019-01-08T03:26:51.539Z,0.00
2019-01-08T03:27:51.453Z,0.00
2019-01-08T03:28:51.367Z,0.00
2019-01-08T03:29:51.277Z,0.00
2019-01-08T03:30:51.190Z,0.00
2019-01-08T03:31:51.102Z,0.00
2019-01-08T03:32:51.017Z,0.00
2019-01-08T03:33:50.924Z,0.00
2019-01-08T03:34:50.834Z,0.00
2019-01-08T03:35:50.751Z,0.00
2019-01-08T03:36:50.663Z,0.00
2019-01-08T03:37:50.576Z,0.00
2019-01-08T03:38:50.484Z,0.00
2019-01-08T03:39:50.395Z,0.00
2019-01-08T03:40:50.311Z,0.00
2019-01-08T03:41:50.220Z,0.00
2019-01-08T03:42:50.130Z,0.00
2019-01-08T03:43:50.044Z,0.00
2019-01-08T03:44:49.954Z,0.00
2019-01-08T03:45:49.866Z,0.00
2019-01-08T03:46:49.778Z,0.00
2019-01-08T03:47:49.691Z,0.00
2019-01-08T03:48:49.602Z,0.00
2019-01-08T03:49:49.513Z,0.00
2019-01-08T03:50:49.426Z,0.00
2019-01-08T03:51:49.340Z,0.00
2019-01-08T03:52:49.250Z,0.00
2019-01-08T03:53:49.160Z,0.00
2019-01-08T03:54:49.073Z,0.00
2019-01-08T03:55:48.983Z,0.00
2019-01-08T03:56:48.895Z,0.00
2019-01-08T03:57:48.811Z,0.00
2019-01-08T03:58:48.717Z,0.00
2019-01-08T03:59:48.630Z,0.00
2019-01-08T04:00:48.545Z,0.00
2019-01-08T04:01:48.455Z,0.00
2019-01-08T04:02:48.365Z,0.00
2019-01-08T04:03:48.277Z,0.00
2019-01-08T04:04:48.199Z,0.00
2019-01-08T04:05:48.101Z,0.00
2019-01-08T04:06:48.013Z,0.00
2019-01-08T04:07:47.924Z,0.00
2019-01-08T04:08:47.836Z,0.00
2019-01-08T04:09:47.749Z,0.00
2019-01-08T04:10:47.662Z,0.00
2019-01-08T04:11:47.571Z,0.00
2019-01-08T04:12:47.483Z,0.00
2019-01-08T04:13:47.395Z,0.00
2019-01-08T04:14:47.309Z,0.00
2019-01-08T04:15:47.221Z,0.00
2019-01-08T04:16:47.130Z,0.00
2019-01-08T04:17:47.045Z,0.00
2019-01-08T04:18:46.956Z,0.00
2019-01-08T04:19:46.866Z,0.00
2019-01-08T04:20:46.778Z,0.00
2019-01-08T04:21:46.690Z,0.00
2019-01-08T04:22:46.603Z,0.00
2019-01-08T04:23:46.511Z,0.00
2019-01-08T04:24:46.427Z,0.00
2019-01-08T04:25:46.338Z,0.00
2019-01-08T04:26:46.252Z,0.00
2019-01-08T04:27:46.166Z,0.00
2019-01-08T04:28:46.079Z,0.00
2019-01-08T04:29:50.486Z,0.00
2019-01-08T04:30:45.895Z,0.00
2019-01-08T04:31:45.810Z,0.00
2019-01-08T04:32:45.721Z,0.00
2019-01-08T04:33:45.635Z,0.00
2019-01-08T04:34:45.542Z,0.00
2019-01-08T04:35:45.459Z,0.00
2019-01-08T04:36:45.373Z,0.00
2019-01-08T04:37:45.277Z,0.00
2019-01-08T04:38:45.192Z,0.00
2019-01-08T04:39:45.103Z,0.00
2019-01-08T04:40:45.016Z,0.00
2019-01-08T04:41:44.929Z,0.00
2019-01-08T04:42:44.839Z,0.00
2019-01-08T04:43:44.754Z,0.00
2019-01-08T04:44:44.665Z,0.00
2019-01-08T04:45:44.585Z,0.00
2019-01-08T04:46:44.486Z,0.00
2019-01-08T04:47:44.399Z,0.00
2019-01-08T04:48:44.311Z,0.00
2019-01-08T04:49:44.243Z,0.00
2019-01-08T04:50:44.133Z,0.00
2019-01-08T04:51:44.051Z,0.00
2019-01-08T04:52:43.958Z,0.00
2019-01-08T04:53:43.868Z,0.00
2019-01-08T04:54:43.781Z,0.00
2019-01-08T04:55:43.698Z,0.00
2019-01-08T04:56:43.608Z,0.00
2019-01-08T04:57:43.519Z,0.00
2019-01-08T04:58:43.430Z,0.00
2019-01-08T04:59:43.345Z,0.00
2019-01-08T05:00:43.253Z,0.00
2019-01-08T05:01:43.174Z,0.00
2019-01-08T05:02:43.077Z,0.00
2019-01-08T05:03:42.987Z,0.00
2019-01-08T05:04:42.900Z,0.00
2019-01-08T05:05:42.813Z,0.00
2019-01-08T05:06:42.729Z,0.00
2019-01-08T05:07:42.635Z,0.00
2019-01-08T05:08:42.550Z,0.00
2019-01-08T05:09:42.464Z,0.00
2019-01-08T05:10:42.373Z,0.00
2019-01-08T05:11:42.284Z,0.00
2019-01-08T05:12:42.196Z,0.00
2019-01-08T05:13:42.110Z,0.00
2019-01-08T05:14:42.022Z,0.00
2019-01-08T05:15:41.932Z,0.00
2019-01-08T05:16:41.847Z,0.00
2019-01-08T05:17:41.754Z,0.00
2019-01-08T05:18:41.668Z,0.00
2019-01-08T05:19:41.579Z,0.00
2019-01-08T05:20:41.498Z,0.00
2019-01-08T05:21:41.414Z,0.00
2019-01-08T05:22:41.318Z,0.00
2019-01-08T05:23:41.231Z,0.00
2019-01-08T05:24:41.139Z,0.00
2019-01-08T05:25:41.051Z,0.00
2019-01-08T05:26:40.963Z,0.00
2019-01-08T05:27:40.877Z,0.00
2019-01-08T05:28:40.791Z,0.00
2019-01-08T05:29:40.698Z,0.00
2019-01-08T05:30:40.609Z,0.00
2019-01-08T05:31:40.523Z,0.00
2019-01-08T05:32:40.433Z,0.00
2019-01-08T05:33:40.347Z,0.00
2019-01-08T05:34:40.262Z,0.00
2019-01-08T05:35:40.171Z,0.00
2019-01-08T05:36:40.085Z,0.00
2019-01-08T05:37:39.991Z,0.00
2019-01-08T05:38:39.905Z,0.00
2019-01-08T05:39:39.818Z,0.00
2019-01-08T05:40:39.736Z,0.00
2019-01-08T05:41:39.643Z,0.00
2019-01-08T05:42:39.553Z,0.00
2019-01-08T05:43:39.463Z,0.00
2019-01-08T05:44:39.384Z,0.00
2019-01-08T05:45:39.292Z,0.00
2019-01-08T05:46:39.201Z,0.00
2019-01-08T05:47:39.113Z,0.00
2019-01-08T05:48:39.024Z,0.00
2019-01-08T05:49:38.937Z,0.00
2019-01-08T05:50:38.850Z,0.00
2019-01-08T05:51:38.760Z,0.00
2019-01-08T05:52:38.678Z,0.00
2019-01-08T05:53:38.590Z,0.00
2019-01-08T05:54:38.495Z,0.00
2019-01-08T05:55:38.410Z,0.00
2019-01-08T05:56:38.320Z,0.00
2019-01-08T05:57:38.232Z,0.00
2019-01-08T05:58:38.146Z,0.00
2019-01-08T05:59:38.059Z,0.00
2019-01-08T06:00:37.971Z,0.00
2019-01-08T06:01:37.883Z,0.00
2019-01-08T06:02:37.793Z,0.00
2019-01-08T06:03:37.704Z,0.00
2019-01-08T06:04:37.616Z,0.00
2019-01-08T06:05:37.526Z,0.00
2019-01-08T06:06:37.443Z,0.00
2019-01-08T06:07:37.353Z,0.00
2019-01-08T06:08:37.270Z,0.00
2019-01-08T06:09:37.179Z,0.00
2019-01-08T06:10:37.088Z,0.00
2019-01-08T06:11:37.000Z,0.00
2019-01-08T06:12:36.910Z,0.00
2019-01-08T06:13:36.827Z,0.00
2019-01-08T06:14:36.895Z,0.00
2019-01-08T06:15:36.648Z,0.00
2019-01-08T06:16:36.561Z,0.00
2019-01-08T06:17:36.472Z,0.00
2019-01-08T06:18:36.384Z,0.00
2019-01-08T06:19:36.296Z,0.00
2019-01-08T06:20:36.212Z,0.00
2019-01-08T06:21:36.121Z,0.00
2019-01-08T06:22:36.031Z,0.00
2019-01-08T06:23:35.947Z,0.00
2019-01-08T06:24:35.855Z,0.00
2019-01-08T06:25:35.770Z,0.00
2019-01-08T06:26:35.681Z,0.00
2019-01-08T06:27:35.592Z,0.00
2019-01-08T06:28:35.503Z,0.00
2019-01-08T06:29:35.415Z,0.00
2019-01-08T06:30:35.327Z,0.00
2019-01-08T06:31:35.241Z,0.00
2019-01-08T06:32:35.215Z,0.00
2019-01-08T06:33:35.897Z,0.00
2019-01-08T06:34:35.047Z,0.00
2019-01-08T06:35:34.958Z,0.00
2019-01-08T06:36:34.863Z,0.00
2019-01-08T06:37:34.794Z,0.00
2019-01-08T06:38:35.393Z,0.00
2019-01-08T06:39:34.607Z,0.00
2019-01-08T06:40:34.523Z,0.00
2019-01-08T06:41:35.396Z,0.00
2019-01-08T06:42:34.339Z,0.00
2019-01-08T06:43:34.185Z,0.00
2019-01-08T06:44:34.097Z,4.00
2019-01-08T06:45:34.007Z,4.00
2019-01-08T06:46:33.967Z,0.00
2019-01-08T06:47:33.833Z,4.00
2019-01-08T06:48:33.745Z,4.00
2019-01-08T06:49:33.657Z,0.00
2019-01-08T06:50:33.578Z,0.00
2019-01-08T06:51:33.557Z,4.00
2019-01-08T06:52:33.931Z,4.00
2019-01-08T06:53:33.304Z,8.00
2019-01-08T06:54:33.231Z,8.00
2019-01-08T06:55:33.128Z,8.00
2019-01-08T06:56:33.040Z,12.00
2019-01-08T06:57:32.954Z,16.00
2019-01-08T06:58:32.866Z,16.00
2019-01-08T06:59:32.777Z,20.00
2019-01-08T07:00:33.534Z,24.00
2019-01-08T07:01:32.600Z,28.00
2019-01-08T07:02:32.514Z,36.00
2019-01-08T07:03:32.429Z,40.00
2019-01-08T07:04:32.337Z,44.00
2019-01-08T07:05:32.253Z,48.00
2019-01-08T07:06:32.164Z,56.00
2019-01-08T07:07:32.072Z,56.00
2019-01-08T07:08:31.986Z,56.00
2019-01-08T07:09:31.898Z,60.00
2019-01-08T07:10:31.812Z,60.00
2019-01-08T07:11:31.722Z,64.00
2019-01-08T07:12:31.638Z,68.00
2019-01-08T07:13:31.544Z,80.00
2019-01-08T07:14:31.458Z,84.00
2019-01-08T07:15:31.369Z,84.00
2019-01-08T07:16:31.280Z,84.00
2019-01-08T07:17:31.193Z,96.00
2019-01-08T07:18:31.104Z,108.00
2019-01-08T07:19:31.018Z,112.00
2019-01-08T07:20:30.929Z,108.00
2019-01-08T07:21:30.841Z,104.00
2019-01-08T07:22:30.756Z,116.00
2019-01-08T07:23:30.663Z,124.00
2019-01-08T07:24:30.578Z,128.00
2019-01-08T07:25:30.490Z,120.00
2019-01-08T07:26:30.402Z,120.00
2019-01-08T07:27:30.320Z,136.00
2019-01-08T07:28:30.231Z,136.00
2019-01-08T07:29:30.140Z,148.00
2019-01-08T07:30:30.050Z,148.00
2019-01-08T07:31:29.961Z,136.00
2019-01-08T07:32:29.874Z,124.00
2019-01-08T07:33:29.792Z,112.00
2019-01-08T07:34:29.716Z,132.00
2019-01-08T07:35:29.615Z,128.00
2019-01-08T07:36:29.521Z,108.00
2019-01-08T07:37:29.435Z,112.00
2019-01-08T07:38:29.347Z,116.00
2019-01-08T07:39:29.259Z,96.00
2019-01-08T07:40:29.168Z,96.00
2019-01-08T07:41:29.083Z,112.00
2019-01-08T07:42:28.996Z,132.00
2019-01-08T07:43:28.907Z,144.00
2019-01-08T07:44:28.819Z,124.00
2019-01-08T07:45:28.729Z,104.00
2019-01-08T07:46:28.718Z,132.00
2019-01-08T07:47:28.556Z,144.00
2019-01-08T07:48:28.468Z,164.00
2019-01-08T07:49:28.378Z,216.00
2019-01-08T07:50:28.292Z,228.00
2019-01-08T07:51:28.201Z,212.00
2019-01-08T07:52:28.115Z,168.00
2019-01-08T07:53:28.024Z,172.00
2019-01-08T07:54:27.942Z,200.00
2019-01-08T07:55:27.850Z,252.00
2019-01-08T07:56:27.761Z,356.00
2019-01-08T07:57:27.680Z,292.00
2019-01-08T07:58:27.590Z,272.00
2019-01-08T07:59:27.499Z,356.00
2019-01-08T08:00:27.408Z,308.00
2019-01-08T08:01:27.326Z,356.00
2019-01-08T08:02:27.243Z,424.00
2019-01-08T08:03:27.146Z,368.00
2019-01-08T08:04:27.059Z,456.00
2019-01-08T08:05:26.969Z,540.00
2019-01-08T08:06:26.883Z,572.00
2019-01-08T08:07:26.794Z,380.00
2019-01-08T08:08:26.705Z,464.00
2019-01-08T08:09:26.619Z,396.00
2019-01-08T08:10:26.532Z,404.00
2019-01-08T08:11:26.445Z,632.00
2019-01-08T08:12:26.356Z,484.00
2019-01-08T08:13:26.270Z,648.00
2019-01-08T08:14:26.180Z,692.00
2019-01-08T08:15:26.091Z,468.00
2019-01-08T08:16:26.009Z,568.00
2019-01-08T08:17:25.917Z,680.00
2019-01-08T08:18:25.831Z,560.00
2019-01-08T08:19:25.764Z,720.00
2019-01-08T08:20:25.652Z,880.00
2019-01-08T08:21:25.569Z,972.00
2019-01-08T08:22:25.479Z,884.00
2019-01-08T08:23:25.389Z,920.00
2019-01-08T08:24:25.324Z,1196.00
2019-01-08T08:25:25.217Z,1636.00
2019-01-08T08:26:25.130Z,1480.00
2019-01-08T08:27:25.040Z,1592.00
2019-01-08T08:28:24.957Z,1024.00
2019-01-08T08:29:24.867Z,1116.00
2019-01-08T08:30:26.275Z,896.00
2019-01-08T08:31:24.699Z,780.00
2019-01-08T08:32:24.603Z,660.00
2019-01-08T08:33:24.529Z,1056.00
2019-01-08T08:34:24.427Z,1108.00
2019-01-08T08:35:24.375Z,724.00
2019-01-08T08:36:24.250Z,856.00
2019-01-08T08:37:24.165Z,852.00
2019-01-08T08:38:24.078Z,992.00
2019-01-08T08:39:23.993Z,1320.00
2019-01-08T08:40:23.904Z,808.00
2019-01-08T08:41:23.845Z,648.00
2019-01-08T08:42:23.730Z,732.00
2019-01-08T08:43:23.640Z,776.00
2019-01-08T08:44:23.581Z,924.00
2019-01-08T08:45:23.465Z,1020.00
2019-01-08T08:46:23.379Z,1076.00
2019-01-08T08:47:23.293Z,1076.00
2019-01-08T08:48:23.205Z,1084.00
2019-01-08T08:49:23.119Z,1128.00
2019-01-08T08:50:23.030Z,1212.00
2019-01-08T08:51:22.979Z,1460.00
2019-01-08T08:52:22.857Z,1608.00
2019-01-08T08:53:22.766Z,1488.00
2019-01-08T08:54:22.684Z,1556.00
2019-01-08T08:55:22.593Z,1548.00
2019-01-08T08:56:22.508Z,1548.00
2019-01-08T08:57:22.419Z,1588.00
2019-01-08T08:58:22.330Z,1760.00
2019-01-08T08:59:22.247Z,2164.00
2019-01-08T09:00:22.156Z,2668.00
2019-01-08T09:01:22.071Z,2256.00
2019-01-08T09:02:21.983Z,1964.00
2019-01-08T09:03:21.895Z,1924.00
2019-01-08T09:04:21.808Z,3100.00
2019-01-08T09:05:21.718Z,2864.00
2019-01-08T09:06:21.638Z,3136.00
2019-01-08T09:07:21.549Z,3208.00
2019-01-08T09:08:21.466Z,2032.00
2019-01-08T09:09:21.371Z,2292.00
2019-01-08T09:10:21.295Z,1792.00
2019-01-08T09:11:21.271Z,1560.00
2019-01-08T09:12:21.111Z,2000.00
2019-01-08T09:13:21.023Z,2644.00
2019-01-08T09:14:20.937Z,2864.00
2019-01-08T09:15:20.853Z,4376.00
2019-01-08T09:16:20.760Z,2740.00
2019-01-08T09:17:20.679Z,2844.00
2019-01-08T09:18:20.590Z,2840.00
2019-01-08T09:19:20.503Z,2900.00
2019-01-08T09:20:20.415Z,3088.00
2019-01-08T09:21:20.329Z,2716.00
2019-01-08T09:22:20.246Z,3724.00
2019-01-08T09:23:20.155Z,2832.00
2019-01-08T09:24:20.066Z,2260.00
2019-01-08T09:25:19.990Z,2132.00
2019-01-08T09:26:19.895Z,1968.00
2019-01-08T09:27:19.837Z,2084.00
2019-01-08T09:28:19.734Z,3000.00
2019-01-08T09:29:19.639Z,3148.00
2019-01-08T09:30:19.551Z,2480.00
2019-01-08T09:31:19.462Z,2380.00
2019-01-08T09:32:19.374Z,3600.00
2019-01-08T09:33:19.290Z,3408.00
2019-01-08T09:34:19.219Z,3524.00
2019-01-08T09:35:19.115Z,3148.00
2019-01-08T09:36:19.028Z,2216.00
2019-01-08T09:37:18.940Z,3412.00
2019-01-08T09:38:18.855Z,4716.00
2019-01-08T09:39:18.767Z,3276.00
2019-01-08T09:40:18.682Z,2120.00
2019-01-08T09:41:18.593Z,2452.00
2019-01-08T09:42:18.507Z,2916.00
2019-01-08T09:43:18.423Z,2080.00
2019-01-08T09:44:18.336Z,1896.00
2019-01-08T09:45:18.250Z,1460.00
2019-01-08T09:46:18.161Z,1380.00
2019-01-08T09:47:18.081Z,2520.00
2019-01-08T09:48:17.994Z,3248.00
2019-01-08T09:49:17.900Z,2904.00
2019-01-08T09:50:17.814Z,3520.00
2019-01-08T09:51:17.727Z,2916.00
2019-01-08T09:52:17.640Z,2404.00
2019-01-08T09:53:17.602Z,3124.00
2019-01-08T09:54:17.479Z,3516.00
2019-01-08T09:55:17.387Z,3560.00
2019-01-08T09:56:17.303Z,3784.00
2019-01-08T09:57:17.208Z,3848.00
2019-01-08T09:58:17.127Z,5248.00
2019-01-08T09:59:17.038Z,3796.00
2019-01-08T10:00:16.949Z,4580.00
2019-01-08T10:01:23.758Z,4532.00
2019-01-08T10:02:16.774Z,4408.00
2019-01-08T10:03:16.688Z,4220.00
2019-01-08T10:04:16.602Z,4388.00
2019-01-08T10:05:16.515Z,3580.00
2019-01-08T10:06:16.502Z,2892.00
2019-01-08T10:07:16.344Z,3700.00
2019-01-08T10:08:16.257Z,4000.00
2019-01-08T10:09:16.167Z,4172.00
2019-01-08T10:10:16.096Z,4228.00
2019-01-08T10:11:15.999Z,4168.00
2019-01-08T10:12:15.914Z,3400.00
2019-01-08T10:13:15.823Z,3804.00
2019-01-08T10:14:15.742Z,4764.00
2019-01-08T10:15:15.721Z,4500.00
2019-01-08T10:16:15.636Z,4176.00
2019-01-08T10:17:15.546Z,4692.00
2019-01-08T10:18:16.439Z,4456.00
2019-01-08T10:19:15.373Z,6432.00
2019-01-08T10:20:15.286Z,6000.00
2019-01-08T10:21:15.203Z,6084.00
2019-01-08T10:22:15.113Z,6524.00
2019-01-08T10:23:15.026Z,7024.00
2019-01-08T10:24:14.945Z,6332.00
2019-01-08T10:25:14.857Z,7712.00
2019-01-08T10:26:15.422Z,6252.00
2019-01-08T10:27:14.690Z,6912.00
2019-01-08T10:28:14.597Z,5720.00
2019-01-08T10:29:14.512Z,7136.00
2019-01-08T10:30:14.431Z,6696.00
2019-01-08T10:31:14.339Z,7404.00
2019-01-08T10:32:14.255Z,8500.00
2019-01-08T10:33:14.170Z,7648.00
2019-01-08T10:34:14.084Z,22272.00
2019-01-08T10:35:13.965Z,7288.00
2019-01-08T10:36:13.914Z,5280.00
2019-01-08T10:37:13.826Z,7948.00
2019-01-08T10:38:13.739Z,38912.00
2019-01-08T10:39:13.651Z,7936.00
2019-01-08T10:40:13.573Z,7488.00
2019-01-08T10:41:13.488Z,8592.00
2019-01-08T10:42:14.960Z,6300.00
2019-01-08T10:43:13.318Z,5028.00
2019-01-08T10:44:13.233Z,5188.00
2019-01-08T10:45:13.943Z,5296.00
2019-01-08T10:46:13.074Z,5312.00
2019-01-08T10:47:12.972Z,4700.00
2019-01-08T10:48:13.449Z,3604.00
2019-01-08T10:49:12.805Z,3088.00
2019-01-08T10:50:12.724Z,2716.00
2019-01-08T10:51:12.640Z,2652.00
2019-01-08T10:52:12.544Z,2564.00
2019-01-08T10:53:12.474Z,2504.00
2019-01-08T10:54:12.943Z,2696.00
2019-01-08T10:55:12.947Z,2940.00
2019-01-08T10:56:12.202Z,3284.00
2019-01-08T10:57:12.124Z,3292.00
2019-01-08T10:58:12.030Z,3172.00
2019-01-08T10:59:11.955Z,3056.00
2019-01-08T11:00:11.805Z,2856.00
2019-01-08T11:01:11.788Z,2688.00
2019-01-08T11:02:11.629Z,2604.00
2019-01-08T11:03:11.564Z,2632.00
2019-01-08T11:04:11.461Z,2760.00
2019-01-08T11:05:11.388Z,2900.00
2019-01-08T11:06:11.285Z,2772.00
2019-01-08T11:07:11.266Z,2456.00
2019-01-08T11:08:11.181Z,2156.00
2019-01-08T11:09:11.093Z,2004.00
2019-01-08T11:10:11.009Z,2032.00
2019-01-08T11:11:10.922Z,1992.00
2019-01-08T11:12:10.835Z,1884.00
2019-01-08T11:13:10.748Z,1876.00
2019-01-08T11:14:10.658Z,1996.00
2019-01-08T11:15:10.546Z,2088.00
2019-01-08T11:16:10.490Z,1988.00
2019-01-08T11:17:10.401Z,1856.00
2019-01-08T11:18:10.914Z,1960.00
2019-01-08T11:19:10.172Z,1828.00
2019-01-08T11:20:10.143Z,1768.00
2019-01-08T11:21:10.064Z,1612.00
2019-01-08T11:22:09.972Z,1828.00
2019-01-08T11:23:09.884Z,1848.00
2019-01-08T11:24:09.805Z,2196.00
2019-01-08T11:25:09.699Z,2388.00
2019-01-08T11:26:09.627Z,2380.00
2019-01-08T11:27:09.542Z,2268.00
2019-01-08T11:28:09.458Z,2216.00
2019-01-08T11:29:09.371Z,2428.00
2019-01-08T11:30:09.950Z,2324.00
2019-01-08T11:31:09.130Z,2112.00
2019-01-08T11:32:09.043Z,1956.00
2019-01-08T11:33:08.960Z,1800.00
2019-01-08T11:34:08.870Z,1764.00
2019-01-08T11:35:08.785Z,1792.00
2019-01-08T11:36:08.698Z,1764.00
2019-01-08T11:37:08.609Z,1588.00
2019-01-08T11:38:08.523Z,1544.00
2019-01-08T11:39:08.436Z,1580.00
2019-01-08T11:40:08.350Z,1536.00
2019-01-08T11:41:08.266Z,1500.00
2019-01-08T11:42:08.186Z,1476.00
2019-01-08T11:43:08.092Z,1572.00
2019-01-08T11:44:08.009Z,1572.00
2019-01-08T11:45:07.918Z,1464.00
2019-01-08T11:46:07.837Z,1540.00
2019-01-08T11:47:07.748Z,1440.00
2019-01-08T11:48:07.659Z,1312.00
2019-01-08T11:49:07.573Z,1336.00
2019-01-08T11:50:07.487Z,1340.00
2019-01-08T11:51:07.399Z,1404.00
2019-01-08T11:52:07.313Z,1288.00
2019-01-08T11:53:07.224Z,1360.00
2019-01-08T11:54:07.148Z,1544.00
2019-01-08T11:55:07.057Z,1568.00
2019-01-08T11:56:06.968Z,1492.00
2019-01-08T11:57:06.879Z,1568.00
2019-01-08T11:58:06.793Z,1656.00
2019-01-08T11:59:06.720Z,1572.00
2019-01-08T12:00:06.618Z,1516.00
2019-01-08T12:01:06.534Z,1516.00
2019-01-08T12:02:06.448Z,1548.00
2019-01-08T12:03:06.363Z,1436.00
2019-01-08T12:04:06.275Z,1388.00
2019-01-08T12:05:06.185Z,1212.00
2019-01-08T12:06:06.108Z,1036.00
2019-01-08T12:07:06.019Z,1056.00
2019-01-08T12:08:05.927Z,1180.00
2019-01-08T12:09:05.841Z,1188.00
2019-01-08T12:10:05.756Z,1228.00
2019-01-08T12:11:05.666Z,1320.00
2019-01-08T12:12:05.581Z,1296.00
2019-01-08T12:13:05.525Z,1256.00
2019-01-08T12:14:05.406Z,1268.00
2019-01-08T12:15:05.319Z,1144.00
2019-01-08T12:16:05.235Z,1068.00
2019-01-08T12:17:05.146Z,1164.00
2019-01-08T12:18:05.061Z,1144.00
2019-01-08T12:19:04.974Z,976.00
2019-01-08T12:20:04.887Z,920.00
2019-01-08T12:21:04.808Z,932.00
2019-01-08T12:22:04.715Z,896.00
2019-01-08T12:23:04.628Z,912.00
2019-01-08T12:24:04.553Z,788.00
2019-01-08T12:25:04.456Z,768.00
2019-01-08T12:26:04.367Z,872.00
2019-01-08T12:27:04.279Z,1000.00
2019-01-08T12:28:04.191Z,952.00
2019-01-08T12:29:04.116Z,876.00
2019-01-08T12:30:04.022Z,884.00
2019-01-08T12:31:03.931Z,880.00
2019-01-08T12:32:06.389Z,1040.00
2019-01-08T12:33:03.758Z,1148.00
2019-01-08T12:34:03.677Z,1372.00
2019-01-08T12:35:03.585Z,1216.00
2019-01-08T12:36:03.496Z,1288.00
2019-01-08T12:37:03.411Z,1360.00
2019-01-08T12:38:03.327Z,1128.00
2019-01-08T12:39:03.234Z,1060.00
2019-01-08T12:40:03.152Z,1124.00
2019-01-08T12:41:03.064Z,980.00
2019-01-08T12:42:02.980Z,828.00
2019-01-08T12:43:02.892Z,824.00
2019-01-08T12:44:02.806Z,960.00
2019-01-08T12:45:02.717Z,1164.00
2019-01-08T12:46:02.632Z,1304.00